Time;durP1;ratioP1;P1;durP2;ratioP2;P2;SDS_P1;SDS_P2;PMS_P1;PMS_P2;Temp;Humidity;BMP_temperature;BMP_pressure;BME280_temperature;BME280_humidity;BME280_pressure;Samples;Min_cycle;Max_cycle;Signal;HPM_P1;HPM_P2
2023/08/28 00:01:50;;;;;;;12.20;8.63;;;;;;;14.11;88.89;98672.13;4873560;29;20479;-55
2023/08/28 00:04:15;;;;;;;12.50;9.32;;;;;;;14.15;88.51;98667.88;4857980;29;20069;-57
2023/08/28 00:06:41;;;;;;;11.15;8.07;;;;;;;14.15;88.20;98672.38;4859172;29;20050;-56
2023/08/28 00:09:07;;;;;;;15.18;8.63;;;;;;;14.06;88.27;98667.66;4839489;29;20046;-57
2023/08/28 00:11:33;;;;;;;13.30;9.52;;;;;;;13.97;88.35;98661.31;4840730;29;20052;-57
2023/08/28 00:13:59;;;;;;;14.85;9.60;;;;;;;13.91;88.37;98661.63;4840732;29;20050;-58
2023/08/28 00:16:25;;;;;;;15.15;11.00;;;;;;;13.79;89.53;98653.97;4841270;29;20054;-57
2023/08/28 00:18:50;;;;;;;17.50;11.32;;;;;;;13.69;90.44;98641.50;4839602;29;20500;-54
2023/08/28 00:21:16;;;;;;;18.80;11.77;;;;;;;13.58;90.83;98643.44;4794242;29;20065;-57
2023/08/28 00:23:42;;;;;;;14.60;11.20;;;;;;;13.51;91.94;98647.50;4839501;29;20129;-57
2023/08/28 00:26:07;;;;;;;14.20;10.65;;;;;;;13.42;92.92;98660.56;4840624;29;20061;-59
2023/08/28 00:28:33;;;;;;;12.55;9.40;;;;;;;13.33;93.65;98656.88;4839376;29;20069;-57
2023/08/28 00:30:59;;;;;;;15.10;10.48;;;;;;;13.25;93.96;98663.56;4840132;29;20229;-58
2023/08/28 00:33:25;;;;;;;16.98;10.65;;;;;;;13.18;94.75;98665.69;4839161;29;20111;-57
2023/08/28 00:35:51;;;;;;;12.63;9.20;;;;;;;13.14;95.16;98665.41;4840763;29;20050;-57
2023/08/28 00:38:16;;;;;;;13.57;9.80;;;;;;;13.09;95.35;98665.47;4839310;29;20508;-57
2023/08/28 00:40:43;;;;;;;12.98;9.98;;;;;;;13.05;95.51;98656.41;4839336;29;20096;-58
2023/08/28 00:43:08;;;;;;;15.68;11.93;;;;;;;13.04;95.24;98662.03;4823998;29;20040;-56
2023/08/28 00:45:39;;;;;;;12.43;9.65;;;;;;;13.11;95.80;98662.50;4839230;29;20491;-58
2023/08/28 00:48:04;;;;;;;;;;;;;;;13.15;95.01;98661.72;4839766;29;20050;-56
2023/08/28 00:50:30;;;;;;;13.10;9.95;;;;;;;13.19;95.03;98668.06;4853819;29;19934;-56
2023/08/28 00:52:56;;;;;;;14.18;10.27;;;;;;;13.16;94.80;98667.81;4839259;29;20099;-53
2023/08/28 00:55:22;;;;;;;15.05;10.45;;;;;;;13.09;94.40;98667.34;4823999;29;20431;-55
2023/08/28 00:57:47;;;;;;;11.95;9.90;;;;;;;12.99;94.53;98656.72;4839112;29;20405;-57
2023/08/28 01:00:13;;;;;;;13.32;10.50;;;;;;;12.93;95.09;98650.59;4840416;29;20061;-58
2023/08/28 01:02:40;;;;;;;15.60;10.38;;;;;;;12.86;95.14;98656.22;4824027;29;20057;-57
2023/08/28 01:05:07;;;;;;;15.20;10.65;;;;;;;12.81;95.76;98664.19;4839139;29;20057;-59
2023/08/28 01:07:37;;;;;;;14.80;10.60;;;;;;;12.78;96.59;98662.06;4840365;29;20060;-57
2023/08/28 01:10:13;;;;;;;15.45;10.30;;;;;;;12.76;97.53;98666.06;4840089;29;20049;-58
2023/08/28 01:12:57;;;;;;;12.90;9.27;;;;;;;12.81;99.02;98672.16;4858784;29;20059;-57
2023/08/28 01:15:23;;;;;;;12.70;9.73;;;;;;;12.82;98.46;98670.31;4842164;29;20516;-58
2023/08/28 01:17:54;;;;;;;15.40;8.85;;;;;;;12.82;99.33;98670.31;4841309;29;20630;-57
2023/08/28 01:20:19;;;;;;;;;;;;;;;12.86;99.44;98666.06;4873598;29;20109;-56
2023/08/28 01:22:59;;;;;;;12.20;9.27;;;;;;;12.83;99.40;98679.91;4826870;29;19927;-57
2023/08/28 01:25:25;;;;;;;15.68;9.25;;;;;;;12.74;98.99;98679.66;4872379;29;20474;-56
2023/08/28 01:27:52;;;;;;;16.92;9.75;;;;;;;12.70;99.59;98681.22;4841226;29;20050;-58
2023/08/28 01:30:18;;;;;;;14.18;9.75;;;;;;;12.64;100.00;98680.44;4857092;29;20057;-57
2023/08/28 01:32:45;;;;;;;13.68;9.68;;;;;;;12.62;100.00;98677.28;4858633;29;20449;-58
2023/08/28 01:35:11;;;;;;;14.35;9.80;;;;;;;12.64;100.00;98680.44;4860151;29;20054;-57
2023/08/28 01:38:03;;;;;;;12.23;9.18;;;;;;;12.59;100.00;98676.97;4861820;29;20053;-58
2023/08/28 01:40:35;;;;;;;13.57;9.38;;;;;;;12.58;100.00;98680.72;4860580;29;20145;-57
2023/08/28 01:43:02;;;;;;;11.55;9.23;;;;;;;12.57;100.00;98676.47;4845000;29;20049;-57
2023/08/28 01:45:28;;;;;;;15.57;9.48;;;;;;;12.54;99.70;98680.47;4860769;29;20057;-56
2023/08/28 01:47:54;;;;;;;17.17;9.93;;;;;;;12.54;99.46;98683.13;4844631;29;20049;-56
2023/08/28 01:50:20;;;;;;;12.85;8.82;;;;;;;12.54;99.03;98687.63;4843875;29;20534;-57
2023/08/28 01:52:45;;;;;;;12.43;9.43;;;;;;;12.48;98.61;98700.13;4860369;29;20049;-55
2023/08/28 01:55:11;;;;;;;15.40;8.90;;;;;;;12.41;98.44;98687.13;4860471;29;20065;-57
2023/08/28 01:57:37;;;;;;;12.82;8.77;;;;;;;12.40;98.73;98693.47;4860215;29;20140;-57
2023/08/28 02:00:04;;;;;;;12.43;9.48;;;;;;;12.38;98.26;98698.28;4860318;29;20047;-57
2023/08/28 02:02:42;;;;;;;11.00;8.13;;;;;;;12.35;98.39;98698.78;4861482;29;20211;-57
2023/08/28 02:05:08;;;;;;;13.82;9.60;;;;;;;12.31;98.59;98695.06;4860220;29;20049;-60
2023/08/28 02:07:34;;;;;;;11.98;8.70;;;;;;;12.27;98.71;98700.13;4860228;29;20060;-56
2023/08/28 02:09:59;;;;;;;14.68;8.73;;;;;;;12.31;99.78;98699.59;4860042;29;20064;-58
2023/08/28 02:12:25;;;;;;;14.90;9.40;;;;;;;12.33;99.93;98700.16;4859790;29;20045;-57
2023/08/28 02:14:51;;;;;;;12.45;9.07;;;;;;;12.34;99.95;98702.53;4858887;29;20066;-56
2023/08/28 02:17:37;;;;;;;12.38;8.95;;;;;;;12.30;99.10;98695.34;4834613;29;20080;-55
2023/08/28 02:20:03;;;;;;;10.95;9.30;;;;;;;12.27;99.09;98700.13;4814206;29;20516;-57
2023/08/28 02:22:29;;;;;;;15.68;9.10;;;;;;;12.27;99.31;98705.44;4844354;29;20575;-56
2023/08/28 02:24:55;;;;;;;13.15;8.93;;;;;;;12.24;99.09;98711.28;4858948;29;20050;-57
2023/08/28 02:27:21;;;;;;;14.25;9.30;;;;;;;12.24;99.35;98713.94;4861125;29;20152;-57
2023/08/28 02:29:47;;;;;;;13.10;9.52;;;;;;;12.29;99.51;98715.78;4844308;29;20100;-57
2023/08/28 02:32:12;;;;;;;13.05;8.80;;;;;;;12.35;99.61;98714.72;4861013;29;20476;-56
2023/08/28 02:34:38;;;;;;;12.68;9.05;;;;;;;12.42;98.69;98720.59;4860845;29;20046;-58
2023/08/28 02:37:04;;;;;;;13.35;9.05;;;;;;;12.50;97.72;98725.41;4859423;29;20451;-56
2023/08/28 02:39:30;;;;;;;10.05;8.25;;;;;;;12.62;96.89;98721.69;4859199;29;20472;-59
2023/08/28 02:41:56;;;;;;;12.45;8.50;;;;;;;12.72;95.65;98722.44;4859301;29;20132;-56
2023/08/28 02:44:22;;;;;;;12.07;8.15;;;;;;;12.95;94.64;98728.28;4859445;29;20152;-57
2023/08/28 02:46:47;;;;;;;12.05;7.97;;;;;;;13.11;92.17;98721.06;4859540;29;20045;-56
2023/08/28 02:49:13;;;;;;;10.60;8.40;;;;;;;13.27;90.64;98719.19;4859290;29;20048;-60
2023/08/28 02:51:39;;;;;;;12.02;7.70;;;;;;;13.49;87.93;98721.50;4859190;29;20045;-57
2023/08/28 02:54:05;;;;;;;11.27;7.93;;;;;;;13.68;86.78;98735.00;4859867;29;20065;-58
2023/08/28 02:56:40;;;;;;;9.93;7.70;;;;;;;13.85;85.69;98736.25;4860174;29;20070;-55
2023/08/28 02:59:05;;;;;;;14.45;8.88;;;;;;;13.98;83.95;98734.84;4843887;29;20100;-58
2023/08/28 03:01:34;;;;;;;10.05;7.97;;;;;;;14.16;83.83;98735.28;4844004;29;20480;-57
2023/08/28 03:04:04;;;;;;;8.57;6.82;;;;;;;14.35;82.37;98730.06;4859004;29;20526;-57
2023/08/28 03:06:33;;;;;;;10.57;7.10;;;;;;;14.49;80.58;98737.16;4860044;29;20053;-57
2023/08/28 03:08:59;;;;;;;8.68;7.05;;;;;;;14.68;79.67;98745.31;4860212;29;20060;-56
2023/08/28 03:11:25;;;;;;;11.00;7.20;;;;;;;14.83;78.72;98743.59;4860206;29;20057;-58
2023/08/28 03:13:51;;;;;;;8.88;7.32;;;;;;;15.01;78.01;98742.91;4859047;29;20444;-57
2023/08/28 03:16:17;;;;;;;12.68;7.65;;;;;;;15.19;76.68;98744.84;4858758;29;20152;-57
2023/08/28 03:18:42;;;;;;;14.88;8.27;;;;;;;15.37;76.08;98745.19;4858635;29;20050;-56
2023/08/28 03:21:08;;;;;;;13.82;8.45;;;;;;;15.50;74.80;98744.50;4858804;29;20057;-57
2023/08/28 03:23:34;;;;;;;15.35;8.52;;;;;;;15.61;73.97;98745.16;4858869;29;20625;-57
2023/08/28 03:26:00;;;;;;;13.15;8.68;;;;;;;15.76;73.22;98745.00;4858813;29;20400;-59
2023/08/28 03:28:26;;;;;;;13.73;9.80;;;;;;;15.93;72.59;98751.75;4858625;29;20049;-58
2023/08/28 03:30:55;;;;;;;12.05;8.85;;;;;;;16.01;71.54;98753.78;4859956;29;20041;-59
2023/08/28 03:33:21;;;;;;;10.73;8.52;;;;;;;16.16;70.73;98758.91;4857627;29;20132;-58
2023/08/28 03:35:47;;;;;;;12.95;8.30;;;;;;;16.33;69.81;98761.88;4859950;29;20121;-58
2023/08/28 03:38:13;;;;;;;12.40;8.35;;;;;;;16.48;68.90;98762.75;4859937;29;20540;-57
2023/08/28 03:40:39;;;;;;;12.88;9.38;;;;;;;16.65;68.16;98756.84;4858695;29;20073;-58
2023/08/28 03:43:05;;;;;;;10.88;7.50;;;;;;;16.69;67.81;98749.81;4858426;29;20107;-59
2023/08/28 03:45:30;;;;;;;13.43;8.13;;;;;;;16.80;67.05;98757.44;4858194;29;20088;-57
2023/08/28 03:47:56;;;;;;;9.38;7.47;;;;;;;16.99;66.65;98753.88;4873769;29;20050;-59
2023/08/28 03:50:22;;;;;;;12.77;8.65;;;;;;;17.08;66.54;98759.34;4858366;29;20095;-58
2023/08/28 03:52:48;;;;;;;9.52;7.35;;;;;;;17.17;65.32;98765.63;4858408;29;20056;-57
2023/08/28 03:55:13;;;;;;;8.95;7.20;;;;;;;17.22;65.94;98762.84;4858260;29;20078;-60
2023/08/28 03:57:39;;;;;;;10.73;7.63;;;;;;;17.32;65.26;98759.97;4859088;29;20057;-57
2023/08/28 04:00:10;;;;;;;9.55;7.18;;;;;;;17.51;64.23;98751.84;4842917;29;20060;-56
2023/08/28 04:02:40;;;;;;;8.48;6.60;;;;;;;17.65;63.24;98757.22;4859389;29;20568;-56
2023/08/28 04:05:06;;;;;;;9.60;7.63;;;;;;;17.82;63.83;98757.41;4857761;29;20156;-57
2023/08/28 04:07:32;;;;;;;11.35;7.57;;;;;;;17.91;62.83;98760.16;4857921;29;20105;-55
2023/08/28 04:10:00;;;;;;;12.63;7.13;;;;;;;18.16;62.44;98750.78;4842764;29;20113;-57
2023/08/28 04:12:26;;;;;;;15.25;8.40;;;;;;;18.38;61.97;98761.56;4859224;29;20057;-57
2023/08/28 04:14:52;;;;;;;9.68;7.32;;;;;;;18.56;60.89;98767.03;4842526;29;20066;-57
2023/08/28 04:17:17;;;;;;;9.20;7.30;;;;;;;18.65;61.18;98767.09;4857448;29;20060;-58
2023/08/28 04:19:43;;;;;;;13.70;7.70;;;;;;;18.87;60.77;98760.97;4859143;29;20049;-57
2023/08/28 04:22:09;;;;;;;11.85;7.45;;;;;;;18.82;60.27;98749.25;4859124;29;20080;-58
2023/08/28 04:24:34;;;;;;;9.75;7.35;;;;;;;18.84;60.23;98752.41;4857755;29;20405;-59
2023/08/28 04:27:00;;;;;;;12.43;7.40;;;;;;;18.85;60.94;98742.44;4857621;29;20050;-57
2023/08/28 04:29:26;;;;;;;11.50;7.63;;;;;;;18.78;60.38;98745.56;4859149;29;20053;-59
2023/08/28 04:31:52;;;;;;;12.27;8.20;;;;;;;18.68;61.29;98734.25;4859396;29;20058;-57
2023/08/28 04:34:18;;;;;;;10.15;7.30;;;;;;;18.53;61.34;98741.63;4842318;29;20045;-59
2023/08/28 04:36:44;;;;;;;10.68;7.53;;;;;;;18.45;62.12;98736.97;4857544;29;20431;-56
2023/08/28 04:39:09;;;;;;;12.50;7.07;;;;;;;18.47;62.49;98742.84;4859181;29;20053;-59
2023/08/28 04:41:35;;;;;;;11.73;7.63;;;;;;;18.49;62.03;98737.94;4857584;29;20045;-58
2023/08/28 04:44:01;;;;;;;9.52;6.72;;;;;;;18.48;62.64;98743.63;4859029;29;20056;-57
2023/08/28 04:46:28;;;;;;;7.60;6.18;;;;;;;18.38;62.42;98736.59;4857583;29;20041;-58
2023/08/28 04:48:53;;;;;;;8.10;5.85;;;;;;;18.28;62.91;98748.34;4858757;29;20102;-57
2023/08/28 04:51:19;;;;;;;7.95;5.85;;;;;;;18.25;63.62;98751.66;4857581;29;20049;-58
2023/08/28 04:53:48;;;;;;;9.77;6.45;;;;;;;18.20;63.48;98745.59;4856672;29;20041;-57
2023/08/28 04:58:57;;;;;;;8.70;5.65;;;;;;;18.16;64.12;98745.41;4858678;29;20046;-57
2023/08/28 05:01:24;;;;;;;8.20;5.70;;;;;;;18.09;63.27;98743.16;4858949;29;20114;-58
2023/08/28 05:03:50;;;;;;;8.00;4.95;;;;;;;17.98;62.93;98736.44;4858999;29;20061;-58
2023/08/28 05:06:15;;;;;;;9.70;4.85;;;;;;;17.88;61.59;98739.31;4857468;29;20055;-58
2023/08/28 05:08:41;;;;;;;6.68;4.65;;;;;;;17.75;61.62;98746.28;4858602;29;20045;-56
2023/08/28 05:11:07;;;;;;;6.55;4.57;;;;;;;17.60;63.87;98747.38;4862216;29;20045;-56
2023/08/28 05:13:32;;;;;;;11.93;5.32;;;;;;;17.57;64.06;98744.50;4861093;29;20097;-59
2023/08/28 05:15:58;;;;;;;6.97;4.53;;;;;;;17.63;63.90;98738.75;4860467;29;20057;-57
2023/08/28 05:18:24;;;;;;;4.85;3.90;;;;;;;17.67;63.53;98744.28;4860513;29;20076;-58
2023/08/28 05:20:49;;;;;;;5.65;4.40;;;;;;;17.67;62.87;98753.13;4861011;29;20452;-58
2023/08/28 05:23:15;;;;;;;5.47;3.70;;;;;;;17.64;59.58;98752.94;4860650;29;20051;-58
2023/08/28 05:25:40;;;;;;;5.75;3.50;;;;;;;17.57;57.76;98757.91;4860700;29;20064;-59
2023/08/28 05:28:06;;;;;;;5.60;3.22;;;;;;;17.54;58.12;98751.25;4860898;29;20045;-58
2023/08/28 05:30:32;;;;;;;4.43;3.13;;;;;;;17.49;58.35;98754.81;4860556;29;20046;-59
2023/08/28 05:32:58;;;;;;;3.75;3.03;;;;;;;17.49;57.71;98754.03;4860583;29;20093;-55
2023/08/28 05:35:24;;;;;;;4.90;3.15;;;;;;;17.46;56.88;98751.94;4862118;29;20428;-58
2023/08/28 05:37:50;;;;;;;6.00;3.72;;;;;;;17.44;58.00;98754.13;4860458;29;20081;-56
2023/08/28 05:40:16;;;;;;;4.93;3.15;;;;;;;17.45;57.65;98753.84;4860549;29;20053;-58
2023/08/28 05:42:45;;;;;;;4.43;3.88;;;;;;;17.50;57.49;98750.28;4845020;29;20053;-58
2023/08/28 05:45:11;;;;;;;5.72;3.35;;;;;;;17.52;57.27;98750.75;4860062;29;20105;-56
2023/08/28 05:47:37;;;;;;;6.65;3.70;;;;;;;17.63;57.69;98754.03;4837487;29;20489;-58
2023/08/28 05:50:03;;;;;;;5.32;3.55;;;;;;;17.68;57.45;98753.94;4878538;29;20104;-58
2023/08/28 05:52:30;;;;;;;5.72;3.83;;;;;;;17.60;57.28;98751.94;4837569;29;20064;-57
2023/08/28 05:54:55;;;;;;;7.10;3.88;;;;;;;17.53;57.79;98743.50;4861139;29;20516;-57
2023/08/28 05:57:23;;;;;;;5.40;3.45;;;;;;;17.58;57.77;98743.41;4844159;29;20049;-56
2023/08/28 05:59:52;;;;;;;4.55;3.10;;;;;;;17.62;58.50;98739.06;4860087;29;20072;-55
2023/08/28 06:02:17;;;;;;;5.40;3.15;;;;;;;17.62;56.48;98742.53;4859958;29;20504;-54
2023/08/28 06:04:45;;;;;;;7.45;3.30;;;;;;;17.60;55.38;98739.34;4859199;29;20193;-58
2023/08/28 06:07:11;;;;;;;6.63;2.97;;;;;;;17.65;55.02;98741.13;4861280;29;20054;-55
2023/08/28 06:09:36;;;;;;;4.85;3.13;;;;;;;17.73;55.72;98739.63;4860566;29;20049;-58
2023/08/28 06:12:02;;;;;;;4.47;3.03;;;;;;;17.84;55.96;98746.38;4844309;29;20048;-58
2023/08/28 06:14:30;;;;;;;5.50;3.28;;;;;;;17.89;54.81;98740.94;4859173;29;20065;-55
2023/08/28 06:16:55;;;;;;;5.80;2.97;;;;;;;17.91;54.85;98742.22;4859583;29;20045;-57
2023/08/28 06:19:21;;;;;;;5.63;3.13;;;;;;;17.93;54.42;98740.00;4858886;29;20049;-52
2023/08/28 06:21:47;;;;;;;5.03;3.15;;;;;;;17.94;53.91;98743.47;4859493;29;20081;-55
2023/08/28 06:24:14;;;;;;;3.72;2.97;;;;;;;17.83;55.09;98736.78;4859437;29;20504;-55
2023/08/28 06:26:41;;;;;;;4.78;3.35;;;;;;;17.89;54.58;98732.88;4860933;29;20056;-57
2023/08/28 06:29:07;;;;;;;4.90;2.95;;;;;;;17.93;55.51;98736.53;4845365;29;20141;-56
2023/08/28 06:31:33;;;;;;;5.32;3.38;;;;;;;17.98;55.19;98743.69;4840960;29;20042;-56
2023/08/28 06:33:59;;;;;;;4.32;3.30;;;;;;;18.05;54.16;98749.41;4852883;29;20056;-59
2023/08/28 06:36:24;;;;;;;4.43;3.10;;;;;;;18.03;54.41;98747.06;4841033;29;20069;-59
2023/08/28 06:38:52;;;;;;;4.55;3.10;;;;;;;18.03;54.89;98755.09;4842079;29;20370;-57
2023/08/28 06:41:18;;;;;;;5.72;3.47;;;;;;;18.00;54.84;98752.22;4842244;29;20050;-53
2023/08/28 06:43:47;;;;;;;4.88;3.40;;;;;;;18.04;53.70;98758.56;4825542;29;20494;-54
2023/08/28 06:46:12;;;;;;;6.85;3.65;;;;;;;18.08;54.79;98757.66;4841495;29;20563;-56
2023/08/28 06:48:38;;;;;;;4.72;3.30;;;;;;;18.12;54.43;98744.44;4859109;29;20045;-55
2023/08/28 06:51:03;;;;;;;4.75;3.53;;;;;;;18.16;54.59;98750.78;4860335;29;20092;-58
2023/08/28 06:53:30;;;;;;;4.55;2.97;;;;;;;18.13;54.79;98757.53;4859360;29;20056;-57
2023/08/28 06:55:56;;;;;;;5.32;3.38;;;;;;;18.13;54.33;98767.50;4859870;29;20053;-57
2023/08/28 06:58:22;;;;;;;4.03;2.95;;;;;;;18.16;53.88;98758.84;4860575;29;20061;-56
2023/08/28 07:00:48;;;;;;;4.18;3.08;;;;;;;18.13;52.90;98775.53;4859516;29;20164;-59
2023/08/28 07:03:13;;;;;;;3.55;2.72;;;;;;;18.11;51.11;98773.13;4857007;29;20049;-56
2023/08/28 07:05:40;;;;;;;3.78;3.10;;;;;;;18.09;52.66;98767.31;4859203;29;20140;-57
2023/08/28 07:08:05;;;;;;;6.03;3.20;;;;;;;18.13;52.95;98767.50;4858635;29;20049;-56
2023/08/28 07:10:31;;;;;;;4.00;2.70;;;;;;;18.10;52.26;98762.72;4859740;29;20728;-57
2023/08/28 07:12:58;;;;;;;3.40;3.05;;;;;;;18.16;52.09;98772.25;4858772;29;20136;-52
2023/08/28 07:15:30;;;;;;;3.65;2.85;;;;;;;18.18;51.71;98772.75;4842725;29;20116;-55
2023/08/28 07:17:56;;;;;;;3.72;3.10;;;;;;;18.12;52.46;98761.34;4859847;29;20049;-54
2023/08/28 07:20:23;;;;;;;3.97;2.65;;;;;;;18.20;52.21;98767.84;4859633;29;20049;-54
2023/08/28 07:22:49;;;;;;;5.57;2.80;;;;;;;18.25;52.55;98762.38;4812947;29;20052;-56
2023/08/28 07:25:16;;;;;;;4.45;2.90;;;;;;;18.30;52.23;98773.00;4859862;29;20427;-57
2023/08/28 07:27:42;;;;;;;6.20;3.17;;;;;;;18.32;52.22;98761.94;4842918;29;20052;-57
2023/08/28 07:30:08;;;;;;;3.90;2.88;;;;;;;18.26;52.98;98766.63;4858580;29;20053;-52
2023/08/28 07:32:34;;;;;;;5.65;3.10;;;;;;;18.35;53.40;98772.91;4857848;29;20397;-54
2023/08/28 07:35:01;;;;;;;4.05;3.13;;;;;;;18.42;51.35;98764.41;4856838;29;20068;-53
2023/08/28 07:37:30;;;;;;;3.15;2.60;;;;;;;18.38;51.08;98764.25;4821292;29;20424;-54
2023/08/28 07:39:56;;;;;;;3.97;3.20;;;;;;;18.35;51.02;98756.78;4841236;29;20457;-59
2023/08/28 07:42:22;;;;;;;3.85;3.25;;;;;;;18.37;50.98;98761.84;4858010;29;20042;-55
2023/08/28 07:44:48;;;;;;;5.22;3.33;;;;;;;18.42;51.49;98744.84;4859320;29;20113;-58
2023/08/28 07:47:13;;;;;;;5.95;3.20;;;;;;;18.42;50.44;98747.53;4858428;29;20102;-53
2023/08/28 07:49:41;;;;;;;3.45;3.00;;;;;;;18.45;49.70;98745.03;4859656;29;20053;-56
2023/08/28 07:52:06;;;;;;;6.43;3.30;;;;;;;18.53;50.69;98741.63;4859051;29;20059;-54
2023/08/28 07:54:32;;;;;;;4.38;3.15;;;;;;;18.65;50.44;98753.66;4859273;29;20049;-54
2023/08/28 07:56:58;;;;;;;3.80;3.15;;;;;;;18.71;50.95;98749.78;4857575;29;20073;-54
2023/08/28 07:59:23;;;;;;;4.60;2.92;;;;;;;18.82;50.37;98754.63;4859526;29;20049;-55
2023/08/28 08:01:49;;;;;;;4.50;3.20;;;;;;;18.91;49.25;98748.50;4856815;29;20074;-57
2023/08/28 08:04:15;;;;;;;6.93;3.42;;;;;;;18.92;48.77;98758.94;4841849;29;20453;-59
2023/08/28 08:06:40;;;;;;;4.53;3.00;;;;;;;18.89;49.16;98764.91;4858623;29;20053;-58
2023/08/28 08:09:06;;;;;;;5.70;3.65;;;;;;;18.77;49.67;98765.47;4859065;29;20049;-60
2023/08/28 08:11:34;;;;;;;5.65;2.90;;;;;;;18.66;49.20;98758.75;4857862;29;20064;-57
2023/08/28 08:14:00;;;;;;;4.63;2.90;;;;;;;18.61;49.96;98770.38;4857158;29;20060;-55
2023/08/28 08:16:26;;;;;;;5.45;3.00;;;;;;;18.65;49.62;98759.03;4858773;29;20053;-55
2023/08/28 08:18:52;;;;;;;4.97;3.05;;;;;;;18.80;48.92;98761.41;4858887;29;20059;-56
2023/08/28 08:21:17;;;;;;;3.88;3.47;;;;;;;18.94;48.49;98761.28;4857957;29;20045;-54
2023/08/28 08:23:43;;;;;;;6.57;3.95;;;;;;;19.02;48.36;98761.34;4857494;29;20056;-57
2023/08/28 08:26:09;;;;;;;3.97;3.58;;;;;;;19.27;48.33;98772.53;4859199;29;20049;-52
2023/08/28 08:28:35;;;;;;;5.53;3.55;;;;;;;19.43;47.83;98765.63;4857530;29;20133;-54
2023/08/28 08:31:00;;;;;;;5.90;3.80;;;;;;;19.47;48.65;98765.81;4858999;29;20070;-55
2023/08/28 08:33:26;;;;;;;4.82;3.88;;;;;;;19.52;47.67;98755.72;4868127;29;20508;-56
2023/08/28 08:35:52;;;;;;;4.25;3.58;;;;;;;19.66;47.28;98747.56;4877743;29;20463;-57
2023/08/28 08:38:18;;;;;;;4.28;3.88;;;;;;;19.63;48.34;98758.91;4866176;29;20041;-58
2023/08/28 08:40:45;;;;;;;6.05;3.53;;;;;;;19.59;48.22;98763.34;4859675;29;20543;-58
2023/08/28 08:43:10;;;;;;;7.70;4.00;;;;;;;19.48;48.45;98759.34;4854307;29;20065;-59
2023/08/28 08:45:37;;;;;;;4.25;3.75;;;;;;;19.40;48.52;98760.88;4861198;29;20045;-57
2023/08/28 08:48:07;;;;;;;5.25;3.90;;;;;;;19.42;48.05;98763.28;4858521;29;20461;-58
2023/08/28 08:50:35;;;;;;;4.93;4.40;;;;;;;19.52;46.77;98755.72;4860457;29;20050;-57
2023/08/28 08:53:06;;;;;;;4.32;3.92;;;;;;;19.57;48.64;98767.44;4859804;29;20049;-58
2023/08/28 08:55:45;;;;;;;5.05;3.60;;;;;;;19.59;48.04;98747.22;4860256;29;20045;-59
2023/08/28 08:58:14;;;;;;;5.70;3.85;;;;;;;19.84;47.68;98747.59;4861668;29;20496;-55
2023/08/28 09:00:43;;;;;;;6.28;4.07;;;;;;;20.14;46.79;98749.34;4861292;29;20057;-56
2023/08/28 09:03:09;;;;;;;4.50;4.10;;;;;;;20.36;46.52;98742.25;4860350;29;20480;-57
2023/08/28 09:05:36;;;;;;;4.47;4.05;;;;;;;20.52;45.70;98737.97;4862316;29;20054;-58
2023/08/28 09:08:05;;;;;;;8.35;4.20;;;;;;;20.48;46.44;98728.16;4860899;29;20037;-57
2023/08/28 09:10:31;;;;;;;5.18;4.68;;;;;;;20.40;45.46;98724.34;4847760;29;20085;-58
2023/08/28 09:12:57;;;;;;;5.07;4.57;;;;;;;20.34;46.66;98721.03;4843913;29;20045;-55
2023/08/28 09:15:24;;;;;;;5.03;4.22;;;;;;;20.16;47.45;98738.28;4860022;29;20062;-58
2023/08/28 09:17:49;;;;;;;7.30;4.43;;;;;;;20.14;48.05;98727.84;4861446;29;20511;-57
2023/08/28 09:20:17;;;;;;;6.35;4.15;;;;;;;20.09;47.61;98729.88;4828062;29;20042;-56
2023/08/28 09:22:47;;;;;;;5.00;4.38;;;;;;;20.17;47.35;98732.59;4860733;29;20396;-56
2023/08/28 09:25:13;;;;;;;8.93;4.40;;;;;;;20.19;47.97;98733.06;4861333;29;20436;-57
2023/08/28 09:27:42;;;;;;;9.65;4.45;;;;;;;20.22;46.90;98723.56;4861766;29;20056;-53
2023/08/28 09:30:08;;;;;;;5.63;4.03;;;;;;;20.53;46.76;98719.91;4845982;29;20730;-57
2023/08/28 09:32:34;;;;;;;6.50;4.03;;;;;;;20.46;47.31;98727.69;4841686;29;20045;-57
2023/08/28 09:35:00;;;;;;;4.35;3.80;;;;;;;20.15;47.69;98732.13;4854826;29;20072;-59
2023/08/28 09:37:26;;;;;;;4.90;3.75;;;;;;;19.79;49.26;98718.16;4859468;29;20046;-57
2023/08/28 09:39:56;;;;;;;4.82;3.60;;;;;;;19.75;48.82;98712.63;4859629;29;20105;-59
2023/08/28 09:42:24;;;;;;;5.68;3.83;;;;;;;19.74;49.48;98713.75;4860939;29;20053;-57
2023/08/28 09:44:51;;;;;;;4.78;3.92;;;;;;;19.87;48.60;98728.94;4860823;29;20053;-56
2023/08/28 09:47:21;;;;;;;5.20;4.13;;;;;;;20.04;48.78;98724.69;4859350;29;20554;-58
2023/08/28 09:49:47;;;;;;;5.43;4.03;;;;;;;20.26;48.54;98735.28;4857952;29;20050;-58
2023/08/28 09:52:13;;;;;;;4.82;3.92;;;;;;;20.35;47.33;98727.19;4844196;29;20041;-58
2023/08/28 09:54:39;;;;;;;7.28;4.55;;;;;;;20.48;48.60;98747.00;4859199;29;20582;-59
2023/08/28 09:57:15;;;;;;;4.90;4.18;;;;;;;20.38;46.87;98734.63;4859047;29;20504;-57
2023/08/28 09:59:41;;;;;;;5.68;4.07;;;;;;;19.96;47.88;98753.94;4859882;29;20068;-55
2023/08/28 10:02:07;;;;;;;6.45;3.92;;;;;;;19.87;48.31;98745.06;4828581;29;20496;-57
2023/08/28 10:04:34;;;;;;;4.75;4.07;;;;;;;19.80;48.61;98744.75;4859345;29;20056;-56
2023/08/28 10:07:00;;;;;;;4.50;3.90;;;;;;;19.73;49.02;98752.47;4840399;29;20057;-56
2023/08/28 10:09:29;;;;;;;7.93;4.18;;;;;;;19.60;49.24;98743.41;4852218;29;20056;-57
2023/08/28 10:11:55;;;;;;;6.20;4.32;;;;;;;19.62;49.18;98748.44;4866965;29;20519;-57
2023/08/28 10:14:33;;;;;;;5.07;3.80;;;;;;;19.76;49.41;98743.00;4876284;29;20057;-57
2023/08/28 10:17:04;;;;;;;14.18;4.95;;;;;;;20.06;48.39;98736.72;4828073;29;20530;-57
2023/08/28 10:20:00;;;;;;;5.55;3.80;;;;;;;20.22;47.95;98741.63;4857421;29;20185;-61
2023/08/28 10:22:27;;;;;;;4.15;3.42;;;;;;;20.30;45.20;98730.84;4858117;29;20049;-58
2023/08/28 10:24:56;;;;;;;4.60;4.03;;;;;;;20.45;45.92;98736.88;4858589;29;20050;-56
2023/08/28 10:27:22;;;;;;;3.97;3.67;;;;;;;20.48;45.41;98728.94;4858839;29;20185;-53
2023/08/28 10:29:49;;;;;;;4.63;3.75;;;;;;;20.58;45.29;98723.25;4859915;29;20053;-56
2023/08/28 10:32:15;;;;;;;4.82;3.55;;;;;;;20.69;44.54;98728.31;4860996;29;20049;-58
2023/08/28 10:34:42;;;;;;;4.88;4.00;;;;;;;20.61;45.44;98736.06;4860317;29;20538;-56
2023/08/28 10:37:09;;;;;;;5.70;4.72;;;;;;;20.29;48.58;98731.94;4860562;29;20189;-55
2023/08/28 10:39:40;;;;;;;6.57;4.82;;;;;;;20.03;48.52;98734.66;4859893;29;20051;-55
2023/08/28 10:42:08;;;;;;;7.95;4.18;;;;;;;19.88;49.24;98724.34;4843220;29;20451;-56
2023/08/28 10:44:33;;;;;;;10.82;4.10;;;;;;;19.73;49.66;98730.97;4859067;29;20046;-55
2023/08/28 10:46:59;;;;;;;6.55;4.47;;;;;;;19.70;49.75;98735.06;4857767;29;20049;-54
2023/08/28 10:49:26;;;;;;;6.00;4.70;;;;;;;19.62;49.98;98727.75;4859238;29;20045;-56
2023/08/28 10:52:00;;;;;;;5.40;4.50;;;;;;;19.70;49.78;98740.44;4858511;29;20206;-55
2023/08/28 10:54:37;;;;;;;5.07;4.28;;;;;;;19.96;48.85;98737.78;4860227;29;20049;-58
2023/08/28 10:57:10;;;;;;;5.28;4.30;;;;;;;20.14;48.11;98735.13;4841841;29;20050;-56
2023/08/28 10:59:45;;;;;;;5.25;4.45;;;;;;;20.36;47.73;98736.88;4840497;29;20057;-56
2023/08/28 11:02:12;;;;;;;5.15;4.28;;;;;;;20.45;47.32;98745.72;4835506;29;20042;-55
2023/08/28 11:04:42;;;;;;;6.55;4.47;;;;;;;20.54;46.79;98735.78;4860206;29;20117;-59
2023/08/28 11:07:33;;;;;;;4.72;4.22;;;;;;;20.59;45.69;98729.44;4857670;29;20041;-54
2023/08/28 11:10:20;;;;;;;5.15;4.65;;;;;;;20.59;46.13;98724.06;4855652;29;20077;-56
2023/08/28 11:12:53;;;;;;;5.03;4.40;;;;;;;20.64;45.22;98724.66;4860310;29;20144;-58
2023/08/28 11:15:30;;;;;;;4.90;4.40;;;;;;;20.52;45.81;98719.13;4858318;29;20100;-56
2023/08/28 11:18:31;;;;;;;5.63;4.72;;;;;;;20.64;46.20;98721.19;4859956;29;20044;-54
2023/08/28 11:21:00;;;;;;;7.65;4.72;;;;;;;20.90;45.88;98729.19;4820611;29;20103;-58
2023/08/28 11:23:36;;;;;;;7.53;4.80;;;;;;;20.93;45.18;98725.06;4852753;29;20075;-53
2023/08/28 11:26:06;;;;;;;5.47;4.70;;;;;;;21.06;46.43;98719.50;4876998;29;20557;-55
2023/08/28 11:28:43;;;;;;;6.47;4.85;;;;;;;21.19;44.67;98727.69;4871042;29;20559;-56
2023/08/28 11:31:09;;;;;;;9.00;4.78;;;;;;;20.95;44.82;98739.03;4842954;29;20049;-55
2023/08/28 11:33:46;;;;;;;7.38;4.80;;;;;;;20.64;45.97;98723.88;4859553;29;20046;-54